createdAt,value
2023-01-23T00:01:25.409Z,16.42
2023-01-23T00:03:54.404Z,15.35
2023-01-23T00:06:22.332Z,13.95
2023-01-23T00:08:49.314Z,14.43
2023-01-23T00:11:19.331Z,14.00
2023-01-23T00:13:46.594Z,13.88
2023-01-23T00:16:22.473Z,14.15
2023-01-23T00:18:50.202Z,13.52
2023-01-23T00:21:19.984Z,12.77
2023-01-23T00:23:50.242Z,13.80
2023-01-23T00:26:20.887Z,13.45
2023-01-23T00:28:48.728Z,13.05
2023-01-23T00:31:22.627Z,14.50
2023-01-23T00:33:54.593Z,12.77
2023-01-23T00:36:24.129Z,13.30
2023-01-23T00:38:51.274Z,13.60
2023-01-23T00:41:18.588Z,12.50
2023-01-23T00:43:47.003Z,12.18
2023-01-23T00:46:14.730Z,14.45
2023-01-23T00:48:41.788Z,13.25
2023-01-23T00:51:09.245Z,12.27
2023-01-23T00:53:36.347Z,13.18
2023-01-23T00:56:04.096Z,12.65
2023-01-23T00:58:31.431Z,13.57
2023-01-23T01:00:58.891Z,12.50
2023-01-23T01:03:26.057Z,13.05
2023-01-23T01:05:53.824Z,12.25
2023-01-23T01:08:21.157Z,12.02
2023-01-23T01:10:48.733Z,12.05
2023-01-23T01:13:19.594Z,12.50
2023-01-23T01:15:51.241Z,13.43
2023-01-23T01:18:19.605Z,11.73
2023-01-23T01:20:47.923Z,12.90
2023-01-23T01:23:16.134Z,12.25
2023-01-23T01:25:43.588Z,12.85
2023-01-23T01:28:10.655Z,11.98
2023-01-23T01:30:38.644Z,12.05
2023-01-23T01:33:05.833Z,12.13
2023-01-23T01:35:33.634Z,12.38
2023-01-23T01:38:00.781Z,11.27
2023-01-23T01:40:32.769Z,10.18
2023-01-23T01:43:06.805Z,12.27
2023-01-23T01:46:02.659Z,11.93
2023-01-23T01:49:02.139Z,11.38
2023-01-23T01:51:53.194Z,11.32
2023-01-23T01:54:43.740Z,10.25
2023-01-23T01:57:24.966Z,11.52
2023-01-23T01:59:58.124Z,11.68
2023-01-23T02:02:53.372Z,11.05
2023-01-23T02:05:30.375Z,11.25
2023-01-23T02:10:46.192Z,11.13
2023-01-23T02:13:20.972Z,11.75
2023-01-23T02:15:48.773Z,12.05
2023-01-23T02:18:16.476Z,10.52
2023-01-23T02:20:43.719Z,11.25
2023-01-23T02:23:48.910Z,9.63
2023-01-23T02:26:27.719Z,10.85
2023-01-23T02:28:56.020Z,10.30
2023-01-23T02:31:27.550Z,10.27
2023-01-23T02:33:57.381Z,9.00
2023-01-23T02:36:28.442Z,9.73
2023-01-23T02:39:19.109Z,11.05
2023-01-23T02:41:53.025Z,9.95
2023-01-23T02:44:27.204Z,10.85
2023-01-23T02:47:04.032Z,8.77
2023-01-23T02:49:32.574Z,10.20
2023-01-23T02:52:00.130Z,11.00
2023-01-23T02:54:27.307Z,9.90
2023-01-23T02:56:54.742Z,9.93
2023-01-23T02:59:42.242Z,9.85
2023-01-23T03:02:10.275Z,11.18
2023-01-23T03:04:37.437Z,11.73
2023-01-23T03:07:05.003Z,9.52
2023-01-23T03:09:32.129Z,9.77
2023-01-23T03:12:00.840Z,9.55
2023-01-23T03:14:28.194Z,9.38
2023-01-23T03:16:55.643Z,9.65
2023-01-23T03:19:29.740Z,9.50
2023-01-23T03:21:57.171Z,9.27
2023-01-23T03:24:24.266Z,8.60
2023-01-23T03:26:52.065Z,9.50
2023-01-23T03:29:43.219Z,9.60
2023-01-23T03:32:13.868Z,9.57
2023-01-23T03:34:42.537Z,8.55
2023-01-23T03:37:11.767Z,8.82
2023-01-23T03:39:58.628Z,9.65
2023-01-23T03:42:26.951Z,8.03
2023-01-23T03:44:56.838Z,8.43
2023-01-23T03:47:27.624Z,8.55
2023-01-23T03:49:55.613Z,9.02
2023-01-23T03:52:23.335Z,8.00
2023-01-23T03:54:50.749Z,8.65
2023-01-23T03:57:18.626Z,8.32
2023-01-23T03:59:48.600Z,8.32
2023-01-23T04:02:19.261Z,8.32
2023-01-23T04:04:46.370Z,7.65
2023-01-23T04:07:14.027Z,8.45
2023-01-23T04:09:43.124Z,9.25
2023-01-23T04:12:10.488Z,8.35
2023-01-23T04:14:41.642Z,8.05
2023-01-23T04:17:10.871Z,8.15
2023-01-23T04:19:37.881Z,7.63
2023-01-23T04:22:05.380Z,8.43
2023-01-23T04:24:39.416Z,8.85
2023-01-23T04:27:06.839Z,8.43
2023-01-23T04:29:35.344Z,7.68
2023-01-23T04:32:04.707Z,8.32
2023-01-23T04:34:35.563Z,8.00
2023-01-23T04:37:03.323Z,7.95
2023-01-23T04:39:31.897Z,7.93
2023-01-23T04:41:59.788Z,9.40
2023-01-23T04:44:37.062Z,8.10
2023-01-23T04:47:33.554Z,8.13
2023-01-23T04:50:02.842Z,8.50
2023-01-23T04:52:33.745Z,8.65
2023-01-23T04:55:00.862Z,8.18
2023-01-23T04:57:28.342Z,7.95
2023-01-23T05:00:03.497Z,9.23
2023-01-23T05:02:31.536Z,10.45
2023-01-23T05:04:58.731Z,8.68
2023-01-23T05:07:26.981Z,8.23
2023-01-23T05:10:06.106Z,8.90
2023-01-23T05:12:34.429Z,9.05
2023-01-23T05:15:03.392Z,8.10
2023-01-23T05:17:32.060Z,8.88
2023-01-23T05:19:59.275Z,9.18
2023-01-23T05:22:26.816Z,9.45
2023-01-23T05:24:54.230Z,10.10
2023-01-23T05:27:21.943Z,12.77
2023-01-23T05:29:50.294Z,10.68
2023-01-23T05:32:22.448Z,13.95
2023-01-23T05:35:07.572Z,14.75
2023-01-23T05:37:36.538Z,15.20
2023-01-23T05:40:13.789Z,17.77
2023-01-23T05:42:59.749Z,24.52
2023-01-23T05:45:46.741Z,17.77
2023-01-23T05:48:25.110Z,15.25
2023-01-23T05:50:52.248Z,21.42
2023-01-23T05:53:20.443Z,17.35
2023-01-23T05:55:47.558Z,14.05
2023-01-23T05:58:16.206Z,14.73
2023-01-23T06:01:09.435Z,23.58
2023-01-23T06:03:55.346Z,14.15
2023-01-23T06:06:35.616Z,13.68
2023-01-23T06:09:03.121Z,14.13
2023-01-23T06:11:30.532Z,13.38
2023-01-23T06:13:57.970Z,14.10
2023-01-23T06:16:24.995Z,14.10
2023-01-23T06:18:52.786Z,15.50
2023-01-23T06:21:20.073Z,12.45
2023-01-23T06:23:48.255Z,10.75
2023-01-23T06:26:16.512Z,12.02
2023-01-23T06:28:44.807Z,12.18
2023-01-23T06:31:13.083Z,11.05
2023-01-23T06:34:00.724Z,12.60
2023-01-23T06:36:36.465Z,11.17
2023-01-23T06:39:04.544Z,13.35
2023-01-23T06:41:38.250Z,13.27
2023-01-23T06:44:08.137Z,12.82
2023-01-23T06:46:36.340Z,11.90
2023-01-23T06:49:06.394Z,15.57
2023-01-23T06:51:37.191Z,16.63
2023-01-23T06:54:07.188Z,16.20
2023-01-23T06:56:35.242Z,14.68
2023-01-23T06:59:06.626Z,14.40
2023-01-23T07:01:34.347Z,13.35
2023-01-23T07:04:16.381Z,13.85
2023-01-23T07:06:44.878Z,13.60
2023-01-23T07:09:15.288Z,17.52
2023-01-23T07:11:46.592Z,13.88
2023-01-23T07:14:14.167Z,13.07
2023-01-23T07:16:42.324Z,12.57
2023-01-23T07:19:10.254Z,13.43
2023-01-23T07:21:39.705Z,14.77
2023-01-23T07:24:07.265Z,11.73
2023-01-23T07:26:34.367Z,14.63
2023-01-23T07:29:02.002Z,13.05
2023-01-23T07:31:29.165Z,12.10
2023-01-23T07:33:56.966Z,12.20
2023-01-23T07:36:24.025Z,13.38
2023-01-23T07:38:51.397Z,13.40
2023-01-23T07:41:18.427Z,13.15
2023-01-23T07:43:45.805Z,12.18
2023-01-23T07:46:12.843Z,12.82
2023-01-23T07:48:40.559Z,11.43
2023-01-23T07:51:07.830Z,12.90
2023-01-23T07:53:35.623Z,13.52
2023-01-23T07:56:06.359Z,11.80
2023-01-23T07:58:33.913Z,12.02
2023-01-23T08:01:08.919Z,11.43
2023-01-23T08:03:36.436Z,11.23
2023-01-23T08:06:03.673Z,11.73
2023-01-23T08:08:31.125Z,11.43
2023-01-23T08:10:58.260Z,12.20
2023-01-23T08:13:25.680Z,10.52
2023-01-23T08:15:53.404Z,11.68
2023-01-23T08:18:20.811Z,10.00
2023-01-23T08:20:54.395Z,10.40
2023-01-23T08:23:28.445Z,12.18
2023-01-23T08:25:57.738Z,10.75
2023-01-23T08:28:26.189Z,11.52
2023-01-23T08:30:54.346Z,11.65
2023-01-23T08:33:22.131Z,12.40
2023-01-23T08:35:53.814Z,11.75
2023-01-23T08:38:21.721Z,11.30
2023-01-23T08:40:50.476Z,11.20
2023-01-23T08:43:19.440Z,12.30
2023-01-23T08:45:52.223Z,12.05
2023-01-23T08:48:20.872Z,11.88
2023-01-23T08:50:48.053Z,14.07
2023-01-23T08:53:15.720Z,13.73
2023-01-23T08:55:42.982Z,14.73
2023-01-23T08:58:13.955Z,19.58
2023-01-23T09:00:41.889Z,18.33
2023-01-23T09:03:11.414Z,15.55
2023-01-23T09:05:38.983Z,16.55
2023-01-23T09:08:06.376Z,14.60
2023-01-23T09:10:33.419Z,21.30
2023-01-23T09:13:00.997Z,13.50
2023-01-23T09:15:28.080Z,16.13
2023-01-23T09:17:55.389Z,14.45
2023-01-23T09:20:22.758Z,15.55
2023-01-23T09:22:51.268Z,12.57
2023-01-23T09:25:18.435Z,13.25
2023-01-23T09:27:45.781Z,13.85
2023-01-23T09:30:13.489Z,15.80
2023-01-23T09:32:40.807Z,16.90
2023-01-23T09:35:08.297Z,15.60
2023-01-23T09:37:58.509Z,15.43
2023-01-23T09:40:47.452Z,16.48
2023-01-23T09:43:20.531Z,17.05
2023-01-23T09:46:10.983Z,15.43
2023-01-23T09:48:45.619Z,15.65
2023-01-23T09:51:15.722Z,15.43
2023-01-23T09:53:43.035Z,16.30
2023-01-23T09:56:21.183Z,15.50
2023-01-23T09:59:07.551Z,15.77
2023-01-23T10:01:34.629Z,17.25
2023-01-23T10:04:03.025Z,16.45
2023-01-23T10:06:33.375Z,17.58
2023-01-23T10:09:15.589Z,17.30
2023-01-23T10:12:04.587Z,17.30
2023-01-23T10:14:56.588Z,19.65
2023-01-23T10:17:48.036Z,29.20
2023-01-23T10:20:51.204Z,23.58
2023-01-23T10:23:23.806Z,17.40
2023-01-23T10:25:51.584Z,20.13
2023-01-23T10:28:38.223Z,19.98
2023-01-23T10:31:26.831Z,19.20
2023-01-23T10:34:08.969Z,17.63
2023-01-23T10:36:59.410Z,19.75
2023-01-23T10:39:31.581Z,18.25
2023-01-23T10:42:02.550Z,17.48
2023-01-23T10:44:30.086Z,16.42
2023-01-23T10:47:02.000Z,17.85
2023-01-23T10:49:36.481Z,17.73
2023-01-23T10:52:05.786Z,15.80
2023-01-23T10:54:45.648Z,16.98
2023-01-23T10:57:12.965Z,18.65
2023-01-23T11:00:04.149Z,17.73
2023-01-23T11:02:34.194Z,18.20
2023-01-23T11:05:03.833Z,17.17
2023-01-23T11:07:36.940Z,17.45
2023-01-23T11:10:09.924Z,17.17
2023-01-23T11:12:51.721Z,16.50
2023-01-23T11:15:26.475Z,16.38
2023-01-23T11:17:56.822Z,17.02
2023-01-23T11:20:52.749Z,17.90
2023-01-23T11:23:20.700Z,18.15
2023-01-23T11:25:50.257Z,17.63
2023-01-23T11:28:20.623Z,17.17
2023-01-23T11:30:52.684Z,18.27
2023-01-23T11:33:26.384Z,16.77
2023-01-23T11:36:00.577Z,19.00
2023-01-23T11:38:37.675Z,18.92
2023-01-23T11:41:12.210Z,19.67
2023-01-23T11:43:41.184Z,22.45
2023-01-23T11:46:15.451Z,18.83
2023-01-23T11:49:17.781Z,24.02
2023-01-23T11:52:14.155Z,24.45
2023-01-23T11:55:10.645Z,25.73
2023-01-23T11:58:04.008Z,22.10
2023-01-23T12:00:56.042Z,25.25
2023-01-23T12:03:42.342Z,21.30
2023-01-23T12:06:26.975Z,17.77
2023-01-23T12:08:56.982Z,21.15
2023-01-23T12:11:30.629Z,24.23
2023-01-23T12:14:21.601Z,23.02
2023-01-23T12:17:08.960Z,22.35
2023-01-23T12:20:02.910Z,23.88
2023-01-23T12:22:36.424Z,20.83
2023-01-23T12:25:21.916Z,22.50
2023-01-23T12:27:57.889Z,21.55
2023-01-23T12:30:39.056Z,20.38
2023-01-23T12:33:27.942Z,20.02
2023-01-23T12:36:20.127Z,19.20
2023-01-23T12:39:08.807Z,21.30
2023-01-23T12:41:43.646Z,22.92
2023-01-23T12:44:18.302Z,23.00
2023-01-23T12:47:04.211Z,23.40
2023-01-23T12:49:39.224Z,19.83
2023-01-23T12:52:09.163Z,20.48
2023-01-23T12:54:53.682Z,25.98
2023-01-23T12:57:52.888Z,20.20
2023-01-23T13:00:48.537Z,18.08
2023-01-23T13:03:47.026Z,19.90
2023-01-23T13:06:26.807Z,20.60
2023-01-23T13:09:18.226Z,20.83
2023-01-23T13:12:01.311Z,21.00
2023-01-23T13:14:39.563Z,21.02
2023-01-23T13:17:39.599Z,14.87
2023-01-23T13:20:46.554Z,20.73
2023-01-23T13:23:34.264Z,21.63
2023-01-23T13:26:26.551Z,22.38
2023-01-23T13:28:58.924Z,19.45
2023-01-23T13:31:46.704Z,20.88
2023-01-23T13:34:17.509Z,21.30
2023-01-23T13:36:49.871Z,20.15
2023-01-23T13:39:17.483Z,23.98
2023-01-23T13:41:45.916Z,22.33
2023-01-23T13:44:41.543Z,20.23
2023-01-23T14:20:24.496Z,20.20
2023-01-23T14:22:55.447Z,22.23
2023-01-23T14:25:23.227Z,20.23
2023-01-23T14:28:03.738Z,20.60
2023-01-23T14:30:31.702Z,23.42
2023-01-23T14:32:59.351Z,21.30
2023-01-23T14:35:29.467Z,21.05
2023-01-23T14:38:03.029Z,23.17
2023-01-23T14:40:40.050Z,22.70
2023-01-23T14:43:22.617Z,23.80
2023-01-23T14:45:57.296Z,21.60
2023-01-23T14:48:24.865Z,22.10
2023-01-23T14:51:02.718Z,22.15
2023-01-23T14:53:30.082Z,24.20
2023-01-23T14:55:59.875Z,26.13
2023-01-23T14:58:28.729Z,24.75
2023-01-23T15:00:56.959Z,25.10
2023-01-23T15:03:40.904Z,27.05
2023-01-23T15:06:14.804Z,26.95
2023-01-23T15:08:42.881Z,28.95
2023-01-23T15:11:13.043Z,27.05
2023-01-23T15:13:48.941Z,26.83
2023-01-23T15:16:25.027Z,25.75
2023-01-23T15:19:01.396Z,25.55
2023-01-23T15:21:46.885Z,26.83
2023-01-23T15:24:14.242Z,31.15
2023-01-23T15:26:55.972Z,36.35
2023-01-23T15:29:23.437Z,48.92
2023-01-23T15:31:55.339Z,47.88
2023-01-23T15:34:24.803Z,74.93
2023-01-23T15:36:53.697Z,52.13
2023-01-23T15:39:33.245Z,44.65
2023-01-23T15:42:02.950Z,33.28
2023-01-23T15:44:32.439Z,27.20
2023-01-23T15:47:04.319Z,25.38
2023-01-23T15:49:33.846Z,24.08
2023-01-23T15:52:17.590Z,26.35
2023-01-23T15:54:45.341Z,24.85
2023-01-23T15:57:13.906Z,26.98
2023-01-23T15:59:41.597Z,24.45
2023-01-23T16:02:29.643Z,25.77
2023-01-23T16:04:58.774Z,26.95
2023-01-23T16:07:37.382Z,25.73
2023-01-23T16:10:18.234Z,27.60
2023-01-23T16:12:49.874Z,26.33
2023-01-23T16:15:21.477Z,29.40
2023-01-23T16:17:49.688Z,29.50
2023-01-23T16:20:29.901Z,29.00
2023-01-23T16:23:08.468Z,28.33
2023-01-23T16:25:45.155Z,27.88
2023-01-23T16:28:20.273Z,28.38
2023-01-23T16:30:48.746Z,27.83
2023-01-23T16:33:16.530Z,29.52
2023-01-23T16:35:44.800Z,31.13
2023-01-23T16:38:26.494Z,32.60
2023-01-23T16:40:55.011Z,25.92
2023-01-23T16:43:23.171Z,26.60
2023-01-23T16:45:54.249Z,30.02
2023-01-23T16:48:27.956Z,26.65
2023-01-23T16:51:13.484Z,31.92
2023-01-23T16:53:56.100Z,30.40
2023-01-23T16:56:30.511Z,49.22
2023-01-23T16:58:58.073Z,25.30
2023-01-23T17:01:26.575Z,27.45
2023-01-23T17:03:59.971Z,25.58
2023-01-23T17:06:27.471Z,28.85
2023-01-23T17:08:56.139Z,28.02
2023-01-23T17:11:29.375Z,25.40
2023-01-23T17:14:00.720Z,28.73
2023-01-23T17:16:29.247Z,33.13
2023-01-23T17:19:00.550Z,28.08
2023-01-23T17:21:32.663Z,30.55
2023-01-23T17:23:59.882Z,29.55
2023-01-23T17:26:27.247Z,30.13
2023-01-23T17:28:54.606Z,26.73
2023-01-23T17:31:28.267Z,23.25
2023-01-23T17:33:55.845Z,27.17
2023-01-23T17:36:25.178Z,28.48
2023-01-23T17:38:55.465Z,27.55
2023-01-23T17:41:22.875Z,29.20
2023-01-23T17:43:51.427Z,22.52
2023-01-23T17:46:22.811Z,23.67
2023-01-23T17:48:50.152Z,26.98
2023-01-23T17:51:19.404Z,25.77
2023-01-23T17:53:47.028Z,25.42
2023-01-23T17:56:15.118Z,23.75
2023-01-23T17:58:42.227Z,24.77
2023-01-23T18:01:22.543Z,27.95
2023-01-23T18:03:51.510Z,25.92
2023-01-23T18:06:19.944Z,30.13
2023-01-23T18:08:47.338Z,28.80
2023-01-23T18:11:24.394Z,26.92
2023-01-23T18:14:09.048Z,29.35
2023-01-23T18:16:45.503Z,25.77
2023-01-23T18:19:18.553Z,24.35
2023-01-23T18:21:49.190Z,26.60
2023-01-23T18:24:37.469Z,25.38
2023-01-23T18:27:23.399Z,27.42
2023-01-23T18:30:01.803Z,34.28
2023-01-23T18:33:27.631Z,25.05
2023-01-23T18:36:25.659Z,25.48
2023-01-23T18:39:32.046Z,25.70
2023-01-23T18:42:23.863Z,20.48
2023-01-23T18:44:57.533Z,23.38
2023-01-23T18:47:25.682Z,23.75
2023-01-23T18:49:53.353Z,21.80
2023-01-23T18:52:28.105Z,19.92
2023-01-23T18:55:05.099Z,26.42
2023-01-23T18:57:53.675Z,24.02
2023-01-23T19:00:24.692Z,21.17
2023-01-23T19:03:09.011Z,21.88
2023-01-23T19:05:36.593Z,24.77
2023-01-23T19:08:03.824Z,23.85
2023-01-23T19:10:48.750Z,23.63
2023-01-23T19:13:34.960Z,22.23
2023-01-23T19:16:30.334Z,23.75
2023-01-23T19:19:19.718Z,23.98
2023-01-23T19:21:47.536Z,23.55
2023-01-23T19:24:18.646Z,26.10
2023-01-23T19:26:46.409Z,24.00
2023-01-23T19:29:21.988Z,24.80
2023-01-23T19:32:06.699Z,27.50
2023-01-23T19:34:34.515Z,23.30
2023-01-23T19:37:02.631Z,25.83
2023-01-23T19:39:29.652Z,24.27
2023-01-23T19:41:58.895Z,26.83
2023-01-23T19:44:28.840Z,27.92
2023-01-23T19:46:56.336Z,30.40
2023-01-23T19:49:25.091Z,30.30
2023-01-23T19:51:52.475Z,27.95
2023-01-23T19:54:20.482Z,28.98
2023-01-23T19:56:48.459Z,30.58
2023-01-23T19:59:15.536Z,31.75
2023-01-23T20:01:47.192Z,33.95
2023-01-23T20:04:17.400Z,35.65
2023-01-23T20:06:45.616Z,30.83
2023-01-23T20:09:17.641Z,30.42
2023-01-23T20:11:46.260Z,33.78
2023-01-23T20:14:13.492Z,30.48
2023-01-23T20:16:43.152Z,23.95
2023-01-23T20:19:15.416Z,28.38
2023-01-23T20:21:42.955Z,25.10
2023-01-23T20:24:10.145Z,23.75
2023-01-23T20:26:38.203Z,22.77
2023-01-23T20:29:07.045Z,23.45
2023-01-23T20:31:35.802Z,24.85
2023-01-23T20:34:03.137Z,24.20
2023-01-23T20:36:30.577Z,24.00
2023-01-23T20:38:57.791Z,25.25
2023-01-23T20:41:25.107Z,24.70
2023-01-23T20:43:52.210Z,25.98
2023-01-23T20:46:19.812Z,25.67
2023-01-23T20:48:47.666Z,26.17
2023-01-23T20:51:19.131Z,26.25
2023-01-23T20:53:46.297Z,24.40
2023-01-23T20:56:19.296Z,23.35
2023-01-23T20:59:07.431Z,25.55
2023-01-23T21:01:56.326Z,25.70
2023-01-23T21:04:26.108Z,26.60
2023-01-23T21:06:53.517Z,23.88
2023-01-23T21:09:21.754Z,24.75
2023-01-23T21:11:50.870Z,28.27
2023-01-23T21:14:18.231Z,30.85
2023-01-23T21:16:45.712Z,29.15
2023-01-23T21:19:13.416Z,28.88
2023-01-23T21:21:40.994Z,29.70
2023-01-23T21:24:08.346Z,23.42
2023-01-23T21:26:37.018Z,24.23
2023-01-23T21:29:04.912Z,22.45
2023-01-23T21:31:35.545Z,22.35
2023-01-23T21:34:05.208Z,22.27
2023-01-23T21:36:33.016Z,21.08
2023-01-23T21:39:00.484Z,23.15
2023-01-23T21:41:27.784Z,23.38
2023-01-23T21:43:54.784Z,44.60
2023-01-23T21:46:22.309Z,32.72
2023-01-23T21:48:49.401Z,30.58
2023-01-23T21:51:19.691Z,31.42
2023-01-23T21:53:48.370Z,29.70
2023-01-23T21:56:21.230Z,25.08
2023-01-23T21:58:49.026Z,27.23
2023-01-23T22:01:39.432Z,25.63
2023-01-23T22:04:09.553Z,24.65
2023-01-23T22:06:39.489Z,25.48
2023-01-23T22:09:08.141Z,26.15
2023-01-23T22:11:35.677Z,25.75
2023-01-23T22:14:03.169Z,26.17
2023-01-23T22:16:47.594Z,24.10
2023-01-23T22:19:24.611Z,25.20
2023-01-23T22:24:23.418Z,23.52
2023-01-23T22:26:50.762Z,23.80
2023-01-23T22:29:17.911Z,24.13
2023-01-23T22:31:45.318Z,22.92
2023-01-23T22:34:12.414Z,23.48
2023-01-23T22:36:40.303Z,25.15
2023-01-23T22:39:07.319Z,26.25
2023-01-23T22:41:34.621Z,24.50
2023-01-23T22:44:01.811Z,24.42
2023-01-23T22:46:29.438Z,23.98
2023-01-23T22:48:56.508Z,24.08
2023-01-23T22:51:26.277Z,23.85
2023-01-23T22:53:54.771Z,24.50
2023-01-23T22:56:23.350Z,22.40
2023-01-23T22:58:51.580Z,22.38
2023-01-23T23:01:20.540Z,23.50
2023-01-23T23:03:47.693Z,23.58
2023-01-23T23:06:16.817Z,22.83
2023-01-23T23:08:47.383Z,22.20
2023-01-23T23:11:21.898Z,23.58
2023-01-23T23:13:49.634Z,22.33
2023-01-23T23:16:27.934Z,21.63
2023-01-23T23:18:56.380Z,22.80
2023-01-23T23:21:28.346Z,20.73
2023-01-23T23:23:59.941Z,22.75
2023-01-23T23:26:30.726Z,18.63
2023-01-23T23:28:59.292Z,22.42
2023-01-23T23:31:27.050Z,20.63
2023-01-23T23:33:54.400Z,22.00
2023-01-23T23:36:21.935Z,22.83
2023-01-23T23:38:49.115Z,22.95
2023-01-23T23:41:17.132Z,27.48
2023-01-23T23:43:44.738Z,24.60
2023-01-23T23:46:13.355Z,25.23
2023-01-23T23:48:40.883Z,25.00
2023-01-23T23:51:11.230Z,23.65
2023-01-23T23:53:38.746Z,23.40
2023-01-23T23:56:07.591Z,23.27
2023-01-23T23:58:38.209Z,24.02
